sensor_id;sensor_type;location;lat;lon;timestamp;temperature;humidity
21001;DHT22;10658;50.920;12.238;2023-01-16T00:01:19;3.70;99.90
21001;DHT22;10658;50.920;12.238;2023-01-16T00:05:20;3.70;99.90
21001;DHT22;10658;50.920;12.238;2023-01-16T00:09:21;3.70;99.90
21001;DHT22;10658;50.920;12.238;2023-01-16T00:13:22;3.60;99.90
21001;DHT22;10658;50.920;12.238;2023-01-16T00:17:24;3.60;99.90
21001;DHT22;10658;50.920;12.238;2023-01-16T00:21:25;3.70;99.90
21001;DHT22;10658;50.920;12.238;2023-01-16T00:25:26;3.70;99.90
21001;DHT22;10658;50.920;12.238;2023-01-16T00:29:27;3.80;99.90
21001;DHT22;10658;50.920;12.238;2023-01-16T00:33:28;3.80;99.90
21001;DHT22;10658;50.920;12.238;2023-01-16T00:37:29;3.70;99.90
21001;DHT22;10658;50.920;12.238;2023-01-16T00:41:32;3.70;99.90
21001;DHT22;10658;50.920;12.238;2023-01-16T00:45:37;3.60;99.90
21001;DHT22;10658;50.920;12.238;2023-01-16T00:49:40;3.60;99.90
21001;DHT22;10658;50.920;12.238;2023-01-16T00:53:40;3.60;99.90
21001;DHT22;10658;50.920;12.238;2023-01-16T00:57:42;3.60;99.90
21001;DHT22;10658;50.920;12.238;2023-01-16T01:01:43;3.60;99.90
21001;DHT22;10658;50.920;12.238;2023-01-16T01:05:45;3.60;99.90
21001;DHT22;10658;50.920;12.238;2023-01-16T01:09:46;3.60;99.90
21001;DHT22;10658;50.920;12.238;2023-01-16T01:13:47;3.50;99.90
21001;DHT22;10658;50.920;12.238;2023-01-16T01:17:49;3.60;99.90
21001;DHT22;10658;50.920;12.238;2023-01-16T01:21:50;3.50;99.90
21001;DHT22;10658;50.920;12.238;2023-01-16T01:25:51;3.50;99.90
21001;DHT22;10658;50.920;12.238;2023-01-16T01:29:53;3.40;99.90
21001;DHT22;10658;50.920;12.238;2023-01-16T01:33:54;3.40;99.90
21001;DHT22;10658;50.920;12.238;2023-01-16T01:37:54;3.30;99.90
21001;DHT22;10658;50.920;12.238;2023-01-16T01:41:56;3.30;99.90
21001;DHT22;10658;50.920;12.238;2023-01-16T01:46:44;3.20;99.90
21001;DHT22;10658;50.920;12.238;2023-01-16T01:55:03;3.00;99.90
21001;DHT22;10658;50.920;12.238;2023-01-16T01:59:15;3.00;99.90
21001;DHT22;10658;50.920;12.238;2023-01-16T02:03:22;3.00;99.90
21001;DHT22;10658;50.920;12.238;2023-01-16T02:07:27;3.00;99.90
21001;DHT22;10658;50.920;12.238;2023-01-16T02:11:58;3.00;99.90
21001;DHT22;10658;50.920;12.238;2023-01-16T02:16:01;3.00;99.90
21001;DHT22;10658;50.920;12.238;2023-01-16T02:20:23;2.90;99.90
21001;DHT22;10658;50.920;12.238;2023-01-16T02:37:47;2.50;99.90
21001;DHT22;10658;50.920;12.238;2023-01-16T02:46:19;2.30;99.90
21001;DHT22;10658;50.920;12.238;2023-01-16T02:50:40;2.30;99.90
21001;DHT22;10658;50.920;12.238;2023-01-16T02:54:55;2.20;99.90
21001;DHT22;10658;50.920;12.238;2023-01-16T02:59:00;2.30;99.90
21001;DHT22;10658;50.920;12.238;2023-01-16T03:03:02;2.40;99.90
21001;DHT22;10658;50.920;12.238;2023-01-16T03:11:25;2.40;99.90
21001;DHT22;10658;50.920;12.238;2023-01-16T03:15:44;2.50;99.90
21001;DHT22;10658;50.920;12.238;2023-01-16T03:33:02;2.40;99.90
21001;DHT22;10658;50.920;12.238;2023-01-16T03:37:19;2.40;99.90
21001;DHT22;10658;50.920;12.238;2023-01-16T03:41:27;2.40;99.90
21001;DHT22;10658;50.920;12.238;2023-01-16T03:49:40;2.30;99.90
21001;DHT22;10658;50.920;12.238;2023-01-16T03:53:46;2.20;99.90
21001;DHT22;10658;50.920;12.238;2023-01-16T03:58:05;2.20;99.90
21001;DHT22;10658;50.920;12.238;2023-01-16T04:06:21;2.30;99.90
21001;DHT22;10658;50.920;12.238;2023-01-16T04:10:28;2.40;99.90
21001;DHT22;10658;50.920;12.238;2023-01-16T04:14:34;2.40;99.90
21001;DHT22;10658;50.920;12.238;2023-01-16T04:18:36;2.40;99.90
21001;DHT22;10658;50.920;12.238;2023-01-16T04:22:38;2.30;99.90
21001;DHT22;10658;50.920;12.238;2023-01-16T04:26:40;2.30;99.90
21001;DHT22;10658;50.920;12.238;2023-01-16T04:30:47;2.20;99.90
21001;DHT22;10658;50.920;12.238;2023-01-16T04:34:53;2.20;99.90
21001;DHT22;10658;50.920;12.238;2023-01-16T04:38:58;2.10;99.90
21001;DHT22;10658;50.920;12.238;2023-01-16T04:43:00;2.10;99.90
21001;DHT22;10658;50.920;12.238;2023-01-16T04:47:01;2.10;99.90
21001;DHT22;10658;50.920;12.238;2023-01-16T04:51:03;2.10;99.90
21001;DHT22;10658;50.920;12.238;2023-01-16T04:55:05;2.10;99.90
21001;DHT22;10658;50.920;12.238;2023-01-16T04:59:06;2.20;99.90
21001;DHT22;10658;50.920;12.238;2023-01-16T05:03:08;2.10;99.90
21001;DHT22;10658;50.920;12.238;2023-01-16T05:07:09;2.10;99.90
21001;DHT22;10658;50.920;12.238;2023-01-16T05:16:10;2.10;99.90
21001;DHT22;10658;50.920;12.238;2023-01-16T05:20:12;2.10;99.90
21001;DHT22;10658;50.920;12.238;2023-01-16T05:24:13;2.10;99.90
21001;DHT22;10658;50.920;12.238;2023-01-16T05:28:25;2.00;99.90
21001;DHT22;10658;50.920;12.238;2023-01-16T05:32:27;2.00;99.90
21001;DHT22;10658;50.920;12.238;2023-01-16T05:36:28;2.00;99.90
21001;DHT22;10658;50.920;12.238;2023-01-16T05:40:30;2.00;99.90
21001;DHT22;10658;50.920;12.238;2023-01-16T05:44:31;2.00;99.90
21001;DHT22;10658;50.920;12.238;2023-01-16T05:48:32;2.00;99.90
21001;DHT22;10658;50.920;12.238;2023-01-16T05:52:36;2.00;99.90
21001;DHT22;10658;50.920;12.238;2023-01-16T05:56:38;1.90;99.90
21001;DHT22;10658;50.920;12.238;2023-01-16T06:00:41;1.80;99.90
21001;DHT22;10658;50.920;12.238;2023-01-16T06:04:42;1.80;99.90
21001;DHT22;10658;50.920;12.238;2023-01-16T06:08:46;1.80;99.90
21001;DHT22;10658;50.920;12.238;2023-01-16T06:12:48;1.80;99.90
21001;DHT22;10658;50.920;12.238;2023-01-16T06:16:51;1.70;99.90
21001;DHT22;10658;50.920;12.238;2023-01-16T06:20:52;1.70;99.90
21001;DHT22;10658;50.920;12.238;2023-01-16T06:24:54;1.70;99.90
21001;DHT22;10658;50.920;12.238;2023-01-16T06:28:56;1.80;99.90
21001;DHT22;10658;50.920;12.238;2023-01-16T06:32:58;1.70;99.90
21001;DHT22;10658;50.920;12.238;2023-01-16T06:36:59;1.90;99.90
21001;DHT22;10658;50.920;12.238;2023-01-16T06:41:03;1.90;99.90
21001;DHT22;10658;50.920;12.238;2023-01-16T06:45:16;1.90;99.90
21001;DHT22;10658;50.920;12.238;2023-01-16T06:49:22;1.80;99.90
21001;DHT22;10658;50.920;12.238;2023-01-16T06:53:25;1.80;99.90
21001;DHT22;10658;50.920;12.238;2023-01-16T06:57:26;1.90;99.90
21001;DHT22;10658;50.920;12.238;2023-01-16T07:01:33;2.00;99.90
21001;DHT22;10658;50.920;12.238;2023-01-16T07:05:35;2.00;99.90
21001;DHT22;10658;50.920;12.238;2023-01-16T07:09:36;2.10;99.90
21001;DHT22;10658;50.920;12.238;2023-01-16T07:13:38;2.10;99.90
21001;DHT22;10658;50.920;12.238;2023-01-16T07:17:40;2.20;99.90
21001;DHT22;10658;50.920;12.238;2023-01-16T07:22:00;2.20;99.90
21001;DHT22;10658;50.920;12.238;2023-01-16T07:26:22;2.30;99.90
21001;DHT22;10658;50.920;12.238;2023-01-16T07:30:24;2.20;99.90
21001;DHT22;10658;50.920;12.238;2023-01-16T07:34:27;2.20;99.90
21001;DHT22;10658;50.920;12.238;2023-01-16T07:38:29;2.30;99.90
21001;DHT22;10658;50.920;12.238;2023-01-16T07:42:31;2.40;99.90
21001;DHT22;10658;50.920;12.238;2023-01-16T07:46:33;2.50;99.90
21001;DHT22;10658;50.920;12.238;2023-01-16T07:50:41;2.50;99.90
21001;DHT22;10658;50.920;12.238;2023-01-16T07:54:45;2.60;99.90
21001;DHT22;10658;50.920;12.238;2023-01-16T07:58:47;2.60;99.90
21001;DHT22;10658;50.920;12.238;2023-01-16T08:02:51;2.80;99.90
21001;DHT22;10658;50.920;12.238;2023-01-16T08:06:53;2.80;99.90
21001;DHT22;10658;50.920;12.238;2023-01-16T08:11:02;2.90;99.90
21001;DHT22;10658;50.920;12.238;2023-01-16T08:15:31;3.00;99.90
21001;DHT22;10658;50.920;12.238;2023-01-16T08:19:38;3.20;99.90
21001;DHT22;10658;50.920;12.238;2023-01-16T08:23:47;3.30;99.90
21001;DHT22;10658;50.920;12.238;2023-01-16T08:28:08;3.40;99.90
21001;DHT22;10658;50.920;12.238;2023-01-16T08:32:30;3.60;99.90
21001;DHT22;10658;50.920;12.238;2023-01-16T08:36:39;3.60;99.90
21001;DHT22;10658;50.920;12.238;2023-01-16T08:40:46;3.70;99.90
21001;DHT22;10658;50.920;12.238;2023-01-16T08:44:49;3.80;99.90
21001;DHT22;10658;50.920;12.238;2023-01-16T08:49:13;3.90;99.90
21001;DHT22;10658;50.920;12.238;2023-01-16T08:53:34;4.00;99.90
21001;DHT22;10658;50.920;12.238;2023-01-16T08:57:38;4.10;99.90
21001;DHT22;10658;50.920;12.238;2023-01-16T09:01:47;4.30;99.90
21001;DHT22;10658;50.920;12.238;2023-01-16T09:05:53;4.40;99.90
21001;DHT22;10658;50.920;12.238;2023-01-16T09:10:00;4.50;99.90
21001;DHT22;10658;50.920;12.238;2023-01-16T09:18:22;4.70;99.90
21001;DHT22;10658;50.920;12.238;2023-01-16T09:22:29;4.80;99.90
21001;DHT22;10658;50.920;12.238;2023-01-16T09:26:36;4.90;99.90
21001;DHT22;10658;50.920;12.238;2023-01-16T09:30:41;5.00;99.90
21001;DHT22;10658;50.920;12.238;2023-01-16T09:34:54;5.00;99.90
21001;DHT22;10658;50.920;12.238;2023-01-16T09:38:59;5.00;99.90
21001;DHT22;10658;50.920;12.238;2023-01-16T09:47:34;5.30;99.90
21001;DHT22;10658;50.920;12.238;2023-01-16T09:51:55;5.40;99.90
21001;DHT22;10658;50.920;12.238;2023-01-16T09:56:27;5.60;99.90
21001;DHT22;10658;50.920;12.238;2023-01-16T10:00:52;5.60;99.90
21001;DHT22;10658;50.920;12.238;2023-01-16T10:05:01;5.70;99.90
21001;DHT22;10658;50.920;12.238;2023-01-16T10:09:33;5.70;99.90
21001;DHT22;10658;50.920;12.238;2023-01-16T10:14:03;5.70;99.90
21001;DHT22;10658;50.920;12.238;2023-01-16T10:18:36;5.60;99.90
21001;DHT22;10658;50.920;12.238;2023-01-16T10:32:24;5.70;99.90
21001;DHT22;10658;50.920;12.238;2023-01-16T10:36:45;5.70;99.90
21001;DHT22;10658;50.920;12.238;2023-01-16T10:40:56;5.80;99.90
21001;DHT22;10658;50.920;12.238;2023-01-16T10:49:31;5.40;99.90
21001;DHT22;10658;50.920;12.238;2023-01-16T10:53:39;5.10;99.90
21001;DHT22;10658;50.920;12.238;2023-01-16T10:57:57;5.00;99.90
21001;DHT22;10658;50.920;12.238;2023-01-16T11:02:24;5.00;99.90
21001;DHT22;10658;50.920;12.238;2023-01-16T11:06:32;5.10;99.90
21001;DHT22;10658;50.920;12.238;2023-01-16T11:10:42;5.20;99.90
21001;DHT22;10658;50.920;12.238;2023-01-16T11:14:47;5.40;99.90
21001;DHT22;10658;50.920;12.238;2023-01-16T11:19:26;5.50;99.90
21001;DHT22;10658;50.920;12.238;2023-01-16T11:23:43;5.60;99.90
21001;DHT22;10658;50.920;12.238;2023-01-16T11:28:02;5.70;99.90
21001;DHT22;10658;50.920;12.238;2023-01-16T11:32:13;5.70;99.90
21001;DHT22;10658;50.920;12.238;2023-01-16T11:36:24;5.70;99.90
21001;DHT22;10658;50.920;12.238;2023-01-16T11:40:45;5.80;99.90
21001;DHT22;10658;50.920;12.238;2023-01-16T11:44:56;5.90;99.90
21001;DHT22;10658;50.920;12.238;2023-01-16T11:49:45;6.00;99.90
21001;DHT22;10658;50.920;12.238;2023-01-16T11:53:55;6.10;99.90
21001;DHT22;10658;50.920;12.238;2023-01-16T11:58:32;6.10;99.90
21001;DHT22;10658;50.920;12.238;2023-01-16T12:07:35;6.20;99.90
21001;DHT22;10658;50.920;12.238;2023-01-16T12:12:10;6.20;99.90
21001;DHT22;10658;50.920;12.238;2023-01-16T12:17:09;6.20;99.90
21001;DHT22;10658;50.920;12.238;2023-01-16T12:21:40;6.20;99.90
21001;DHT22;10658;50.920;12.238;2023-01-16T12:39:44;6.40;99.90
21001;DHT22;10658;50.920;12.238;2023-01-16T12:44:08;6.50;99.90
21001;DHT22;10658;50.920;12.238;2023-01-16T12:57:25;6.60;99.90
21001;DHT22;10658;50.920;12.238;2023-01-16T13:01:39;6.60;99.90
21001;DHT22;10658;50.920;12.238;2023-01-16T13:05:44;6.70;99.90
21001;DHT22;10658;50.920;12.238;2023-01-16T13:10:14;6.60;99.90
21001;DHT22;10658;50.920;12.238;2023-01-16T13:14:41;6.60;99.90
21001;DHT22;10658;50.920;12.238;2023-01-16T13:18:55;6.60;99.90
21001;DHT22;10658;50.920;12.238;2023-01-16T13:23:32;6.60;99.90
21001;DHT22;10658;50.920;12.238;2023-01-16T13:32:40;6.50;99.90
21001;DHT22;10658;50.920;12.238;2023-01-16T13:45:42;6.50;99.90
21001;DHT22;10658;50.920;12.238;2023-01-16T13:49:56;6.40;99.90
21001;DHT22;10658;50.920;12.238;2023-01-16T13:54:02;6.40;99.90
21001;DHT22;10658;50.920;12.238;2023-01-16T13:58:19;6.40;99.90
21001;DHT22;10658;50.920;12.238;2023-01-16T14:02:39;6.50;99.90
21001;DHT22;10658;50.920;12.238;2023-01-16T14:06:49;6.50;99.90
21001;DHT22;10658;50.920;12.238;2023-01-16T14:15:21;6.40;99.90
21001;DHT22;10658;50.920;12.238;2023-01-16T14:20:02;6.40;99.90
21001;DHT22;10658;50.920;12.238;2023-01-16T14:24:17;6.40;99.90
21001;DHT22;10658;50.920;12.238;2023-01-16T14:28:21;6.30;99.90
21001;DHT22;10658;50.920;12.238;2023-01-16T14:32:28;6.40;99.90
21001;DHT22;10658;50.920;12.238;2023-01-16T14:36:35;6.30;99.90
21001;DHT22;10658;50.920;12.238;2023-01-16T14:40:46;6.30;99.90
21001;DHT22;10658;50.920;12.238;2023-01-16T14:45:18;6.30;99.90
21001;DHT22;10658;50.920;12.238;2023-01-16T14:50:00;6.20;99.90
21001;DHT22;10658;50.920;12.238;2023-01-16T14:54:30;6.10;99.90
21001;DHT22;10658;50.920;12.238;2023-01-16T14:59:11;6.10;99.90
21001;DHT22;10658;50.920;12.238;2023-01-16T15:03:22;5.90;99.90
21001;DHT22;10658;50.920;12.238;2023-01-16T15:11:42;5.80;99.90
21001;DHT22;10658;50.920;12.238;2023-01-16T15:16:18;5.60;99.90
21001;DHT22;10658;50.920;12.238;2023-01-16T15:20:45;5.50;99.90
21001;DHT22;10658;50.920;12.238;2023-01-16T15:25:28;5.50;99.90
21001;DHT22;10658;50.920;12.238;2023-01-16T15:29:54;5.40;99.90
21001;DHT22;10658;50.920;12.238;2023-01-16T15:38:15;5.20;99.90
21001;DHT22;10658;50.920;12.238;2023-01-16T15:42:18;5.20;99.90
21001;DHT22;10658;50.920;12.238;2023-01-16T15:54:57;5.00;99.90
21001;DHT22;10658;50.920;12.238;2023-01-16T15:58:58;5.10;99.90
21001;DHT22;10658;50.920;12.238;2023-01-16T16:03:12;5.10;99.90
21001;DHT22;10658;50.920;12.238;2023-01-16T16:07:15;5.20;99.90
21001;DHT22;10658;50.920;12.238;2023-01-16T16:11:25;5.20;99.90
21001;DHT22;10658;50.920;12.238;2023-01-16T16:16:14;5.20;99.90
21001;DHT22;10658;50.920;12.238;2023-01-16T16:20:43;5.30;99.90
21001;DHT22;10658;50.920;12.238;2023-01-16T16:25:18;5.20;99.90
21001;DHT22;10658;50.920;12.238;2023-01-16T16:29:55;5.20;99.90
21001;DHT22;10658;50.920;12.238;2023-01-16T16:34:35;5.20;99.90
21001;DHT22;10658;50.920;12.238;2023-01-16T16:39:01;5.20;99.90
21001;DHT22;10658;50.920;12.238;2023-01-16T16:43:10;5.20;99.90
21001;DHT22;10658;50.920;12.238;2023-01-16T16:47:34;5.20;99.90
21001;DHT22;10658;50.920;12.238;2023-01-16T16:57:15;5.20;99.90
21001;DHT22;10658;50.920;12.238;2023-01-16T17:02:15;5.20;99.90
21001;DHT22;10658;50.920;12.238;2023-01-16T17:06:41;5.20;99.90
21001;DHT22;10658;50.920;12.238;2023-01-16T17:10:42;5.20;99.90
21001;DHT22;10658;50.920;12.238;2023-01-16T17:14:43;5.10;99.90
21001;DHT22;10658;50.920;12.238;2023-01-16T17:18:48;5.10;99.90
21001;DHT22;10658;50.920;12.238;2023-01-16T17:22:49;5.10;99.90
21001;DHT22;10658;50.920;12.238;2023-01-16T17:26:54;5.00;99.90
21001;DHT22;10658;50.920;12.238;2023-01-16T17:30:55;5.00;99.90
21001;DHT22;10658;50.920;12.238;2023-01-16T17:34:57;4.90;99.90
21001;DHT22;10658;50.920;12.238;2023-01-16T17:38:58;4.90;99.90
21001;DHT22;10658;50.920;12.238;2023-01-16T17:43:00;4.80;99.90
21001;DHT22;10658;50.920;12.238;2023-01-16T17:47:20;4.70;99.90
21001;DHT22;10658;50.920;12.238;2023-01-16T17:51:22;4.60;99.90
21001;DHT22;10658;50.920;12.238;2023-01-16T17:55:26;4.60;99.90
21001;DHT22;10658;50.920;12.238;2023-01-16T17:59:54;4.60;99.90
21001;DHT22;10658;50.920;12.238;2023-01-16T18:03:57;4.60;99.90
21001;DHT22;10658;50.920;12.238;2023-01-16T18:08:28;4.60;99.90
21001;DHT22;10658;50.920;12.238;2023-01-16T18:12:30;4.60;99.90
21001;DHT22;10658;50.920;12.238;2023-01-16T18:16:50;4.60;99.90
21001;DHT22;10658;50.920;12.238;2023-01-16T18:21:11;4.60;99.90
21001;DHT22;10658;50.920;12.238;2023-01-16T18:25:31;4.60;99.90
21001;DHT22;10658;50.920;12.238;2023-01-16T18:29:37;4.60;99.90
21001;DHT22;10658;50.920;12.238;2023-01-16T18:33:45;4.60;99.90
21001;DHT22;10658;50.920;12.238;2023-01-16T18:37:47;4.50;99.90
21001;DHT22;10658;50.920;12.238;2023-01-16T18:42:10;4.50;99.90
21001;DHT22;10658;50.920;12.238;2023-01-16T18:46:29;4.40;99.90
21001;DHT22;10658;50.920;12.238;2023-01-16T18:50:49;4.40;99.90
21001;DHT22;10658;50.920;12.238;2023-01-16T18:55:13;4.30;99.90
21001;DHT22;10658;50.920;12.238;2023-01-16T18:59:33;4.20;99.90
21001;DHT22;10658;50.920;12.238;2023-01-16T19:03:53;4.20;99.90
21001;DHT22;10658;50.920;12.238;2023-01-16T19:07:56;4.20;99.90
21001;DHT22;10658;50.920;12.238;2023-01-16T19:11:58;4.30;99.90
21001;DHT22;10658;50.920;12.238;2023-01-16T19:16:04;4.30;99.90
21001;DHT22;10658;50.920;12.238;2023-01-16T19:20:24;4.50;99.90
21001;DHT22;10658;50.920;12.238;2023-01-16T19:24:28;4.60;99.90
21001;DHT22;10658;50.920;12.238;2023-01-16T19:28:30;4.80;99.90
21001;DHT22;10658;50.920;12.238;2023-01-16T19:32:31;4.80;99.90
21001;DHT22;10658;50.920;12.238;2023-01-16T19:36:33;4.80;99.90
21001;DHT22;10658;50.920;12.238;2023-01-16T19:40:35;4.80;99.90
21001;DHT22;10658;50.920;12.238;2023-01-16T19:44:37;4.70;99.90
21001;DHT22;10658;50.920;12.238;2023-01-16T19:48:57;4.60;99.90
21001;DHT22;10658;50.920;12.238;2023-01-16T19:52:59;4.70;99.90
21001;DHT22;10658;50.920;12.238;2023-01-16T19:57:00;4.60;99.90
21001;DHT22;10658;50.920;12.238;2023-01-16T20:01:13;4.60;99.90
21001;DHT22;10658;50.920;12.238;2023-01-16T20:05:14;4.60;99.90
21001;DHT22;10658;50.920;12.238;2023-01-16T20:09:16;4.70;99.90
21001;DHT22;10658;50.920;12.238;2023-01-16T20:13:17;4.70;99.90
21001;DHT22;10658;50.920;12.238;2023-01-16T20:17:19;4.70;99.90
21001;DHT22;10658;50.920;12.238;2023-01-16T20:21:22;4.80;99.90
21001;DHT22;10658;50.920;12.238;2023-01-16T20:25:23;4.80;99.90
21001;DHT22;10658;50.920;12.238;2023-01-16T20:29:24;4.90;99.90
21001;DHT22;10658;50.920;12.238;2023-01-16T20:33:26;4.80;99.90
21001;DHT22;10658;50.920;12.238;2023-01-16T20:37:28;4.80;99.90
21001;DHT22;10658;50.920;12.238;2023-01-16T20:41:30;4.80;99.90
21001;DHT22;10658;50.920;12.238;2023-01-16T20:45:50;4.90;99.90
21001;DHT22;10658;50.920;12.238;2023-01-16T20:49:59;4.90;99.90
21001;DHT22;10658;50.920;12.238;2023-01-16T20:54:01;4.90;99.90
21001;DHT22;10658;50.920;12.238;2023-01-16T20:58:06;4.90;99.90
21001;DHT22;10658;50.920;12.238;2023-01-16T21:02:10;4.90;99.90
21001;DHT22;10658;50.920;12.238;2023-01-16T21:06:13;4.90;99.90
21001;DHT22;10658;50.920;12.238;2023-01-16T21:10:14;4.90;99.90
21001;DHT22;10658;50.920;12.238;2023-01-16T21:14:15;4.90;99.90
21001;DHT22;10658;50.920;12.238;2023-01-16T21:18:18;4.90;99.90
21001;DHT22;10658;50.920;12.238;2023-01-16T21:22:39;4.90;99.90
21001;DHT22;10658;50.920;12.238;2023-01-16T21:26:46;4.80;99.90
21001;DHT22;10658;50.920;12.238;2023-01-16T21:30:48;4.70;99.90
21001;DHT22;10658;50.920;12.238;2023-01-16T21:34:49;4.70;99.90
21001;DHT22;10658;50.920;12.238;2023-01-16T21:38:51;4.70;99.90
21001;DHT22;10658;50.920;12.238;2023-01-16T21:42:52;4.60;99.90
21001;DHT22;10658;50.920;12.238;2023-01-16T21:47:11;4.50;99.90
21001;DHT22;10658;50.920;12.238;2023-01-16T21:51:13;4.50;99.90
21001;DHT22;10658;50.920;12.238;2023-01-16T21:55:14;4.50;99.90
21001;DHT22;10658;50.920;12.238;2023-01-16T21:59:16;4.40;99.90
21001;DHT22;10658;50.920;12.238;2023-01-16T22:03:17;4.40;99.90
21001;DHT22;10658;50.920;12.238;2023-01-16T22:07:18;4.40;99.90
21001;DHT22;10658;50.920;12.238;2023-01-16T22:11:19;4.40;99.90
21001;DHT22;10658;50.920;12.238;2023-01-16T22:15:39;4.50;99.90
21001;DHT22;10658;50.920;12.238;2023-01-16T22:20:02;4.50;99.90
21001;DHT22;10658;50.920;12.238;2023-01-16T22:24:26;4.60;99.90
21001;DHT22;10658;50.920;12.238;2023-01-16T22:28:28;4.50;99.90
21001;DHT22;10658;50.920;12.238;2023-01-16T22:32:30;4.60;99.90
21001;DHT22;10658;50.920;12.238;2023-01-16T22:36:32;4.70;99.90
21001;DHT22;10658;50.920;12.238;2023-01-16T22:40:33;4.80;99.90
21001;DHT22;10658;50.920;12.238;2023-01-16T22:44:35;4.70;99.90
21001;DHT22;10658;50.920;12.238;2023-01-16T22:49:00;4.60;99.90
21001;DHT22;10658;50.920;12.238;2023-01-16T22:53:02;4.70;99.90
21001;DHT22;10658;50.920;12.238;2023-01-16T22:57:03;4.50;99.90
21001;DHT22;10658;50.920;12.238;2023-01-16T23:05:11;4.60;99.90
21001;DHT22;10658;50.920;12.238;2023-01-16T23:09:12;4.50;99.90
21001;DHT22;10658;50.920;12.238;2023-01-16T23:13:13;4.40;99.90
21001;DHT22;10658;50.920;12.238;2023-01-16T23:17:15;4.40;99.90
21001;DHT22;10658;50.920;12.238;2023-01-16T23:21:17;4.30;99.90
21001;DHT22;10658;50.920;12.238;2023-01-16T23:25:18;4.20;99.90
21001;DHT22;10658;50.920;12.238;2023-01-16T23:29:20;4.20;99.90
21001;DHT22;10658;50.920;12.238;2023-01-16T23:33:23;4.20;99.90
21001;DHT22;10658;50.920;12.238;2023-01-16T23:37:24;4.20;99.90
21001;DHT22;10658;50.920;12.238;2023-01-16T23:41:27;4.10;99.90
21001;DHT22;10658;50.920;12.238;2023-01-16T23:45:52;4.10;99.90
21001;DHT22;10658;50.920;12.238;2023-01-16T23:49:55;4.10;99.90
21001;DHT22;10658;50.920;12.238;2023-01-16T23:53:56;4.10;99.90
21001;DHT22;10658;50.920;12.238;2023-01-16T23:58:01;4.10;99.90
